Weather at El Lencero Airport

Public forecast

Using degrees Celsius for public forecast. Weather courtesy of forecast.io.

Closest aviation weather report (METAR) to El Lencero Airport

Report is more than 2 hours old.

Closest report is General Heriberto Jara International Airport, 39.8 nm (73.8 km) ESE. Retrieved 2020/10/23 03:44 UTC (4 hours ago):

MMVR 230344Z 34003KT 7SM SCT012 25/24 A2993 RMK 8/100 HZY

Closest aviation forecast (TAF) to El Lencero Airport

Forecast is more than 12 hours old.

Closest forecast is General Heriberto Jara International Airport, 39.8 nm (73.8 km) ESE. Retrieved 2020/10/22 18:47 UTC (13 hours ago):

TAF MMVR 221640Z 2218/2318 00000KT 4SM HZ SCT250 TX32/2220Z TN22/2312Z FM222100 34012KT P6SM SCT250 FM231200 00000KT 4SM HZ SCT015